createdAt,value
2018-06-19T00:01:26.922Z,101670.70
2018-06-19T00:06:21.562Z,101665.88
2018-06-19T00:11:16.068Z,101665.80
2018-06-19T00:16:10.736Z,101663.30
2018-06-19T00:21:10.370Z,101671.34
2018-06-19T00:26:05.181Z,101671.04
2018-06-19T00:30:59.707Z,101666.19
2018-06-19T00:35:54.192Z,101679.23
2018-06-19T00:40:48.823Z,101670.26
2018-06-19T00:45:43.803Z,101659.52
2018-06-19T00:50:38.269Z,101652.17
2018-06-19T00:55:32.912Z,101652.58
2018-06-19T01:00:27.450Z,101653.14
2018-06-19T01:05:22.093Z,101653.92
2018-06-19T01:10:16.354Z,101661.67
2018-06-19T01:15:10.834Z,101667.86
2018-06-19T01:20:07.348Z,101673.72
2018-06-19T01:25:01.537Z,101680.80
2018-06-19T01:29:55.856Z,101674.33
2018-06-19T01:34:50.329Z,101672.33
2018-06-19T01:39:44.798Z,101668.52
2018-06-19T01:44:39.284Z,101665.95
2018-06-19T01:49:33.909Z,101674.53
2018-06-19T01:54:28.758Z,101677.40
2018-06-19T01:59:23.435Z,101671.13
2018-06-19T02:04:18.055Z,101673.59
2018-06-19T02:09:12.849Z,101671.89
2018-06-19T02:14:07.301Z,101670.66
2018-06-19T02:19:01.884Z,101672.09
2018-06-19T02:23:56.620Z,101666.84
2018-06-19T02:28:51.113Z,101670.58
2018-06-19T02:33:45.776Z,101684.96
2018-06-19T02:38:40.313Z,101692.70
2018-06-19T02:43:34.778Z,101687.66
2018-06-19T02:48:29.276Z,101690.12
2018-06-19T02:53:23.732Z,101695.55
2018-06-19T02:58:18.204Z,101707.29
2018-06-19T03:03:12.675Z,101707.85
2018-06-19T03:08:07.007Z,101720.42
2018-06-19T03:13:01.500Z,101713.02
2018-06-19T03:17:56.037Z,101720.34
2018-06-19T03:22:50.652Z,101719.47
2018-06-19T03:27:45.458Z,101726.05
2018-06-19T03:32:40.220Z,101726.35
2018-06-19T03:37:34.824Z,101728.73
2018-06-19T03:42:30.022Z,101740.08
2018-06-19T03:47:24.562Z,101735.79
2018-06-19T03:52:18.825Z,101738.81
2018-06-19T03:57:13.454Z,101742.63
2018-06-19T04:02:07.922Z,101745.02
2018-06-19T04:07:02.831Z,101750.80
2018-06-19T04:11:57.657Z,101759.56
2018-06-19T04:16:52.367Z,101756.78
2018-06-19T04:21:47.332Z,101773.81
2018-06-19T04:26:41.741Z,101774.94
2018-06-19T04:31:36.194Z,101777.77
2018-06-19T04:36:31.455Z,101773.66
2018-06-19T04:41:26.528Z,101776.37
2018-06-19T04:46:21.136Z,101789.72
2018-06-19T04:51:15.638Z,101788.83
2018-06-19T04:56:10.112Z,101789.76
2018-06-19T05:01:04.845Z,101787.61
2018-06-19T05:05:59.567Z,101790.20
2018-06-19T05:10:54.287Z,101789.39
2018-06-19T05:15:49.042Z,101797.60
2018-06-19T05:20:43.753Z,101803.98
2018-06-19T05:25:38.293Z,101800.74
2018-06-19T05:30:32.822Z,101796.06
2018-06-19T05:35:27.725Z,101792.70
2018-06-19T05:40:22.293Z,101785.06
2018-06-19T05:45:16.843Z,101782.63
2018-06-19T05:50:11.370Z,101789.30
2018-06-19T05:55:06.008Z,101799.49
2018-06-19T06:00:00.480Z,101794.12
2018-06-19T06:04:55.129Z,101799.66
2018-06-19T06:09:49.857Z,101802.85
2018-06-19T06:14:44.592Z,101804.34
2018-06-19T06:19:39.576Z,101793.03
2018-06-19T06:24:34.745Z,101796.84
2018-06-19T06:29:29.600Z,101806.52
2018-06-19T06:34:24.903Z,101812.51
2018-06-19T06:39:19.486Z,101814.45
2018-06-19T06:44:14.089Z,101819.56
2018-06-19T06:49:09.206Z,101817.00
2018-06-19T06:54:03.942Z,101821.34
2018-06-19T06:58:58.778Z,101826.86
2018-06-19T07:03:53.246Z,101818.58
2018-06-19T07:08:47.908Z,101822.43
2018-06-19T07:13:42.416Z,101825.72
2018-06-19T07:18:37.628Z,101825.70
2018-06-19T07:23:31.906Z,101829.03
2018-06-19T07:28:26.360Z,101831.86
2018-06-19T07:33:21.040Z,101841.16
2018-06-19T07:38:15.335Z,101845.14
2018-06-19T07:43:10.138Z,101844.23
2018-06-19T07:48:04.888Z,101844.82
2018-06-19T07:52:59.650Z,101853.05
2018-06-19T07:57:54.072Z,101857.36
2018-06-19T08:02:49.666Z,101856.32
2018-06-19T08:07:44.343Z,101861.20
2018-06-19T08:12:39.268Z,101862.83
2018-06-19T08:17:33.816Z,101863.48
2018-06-19T08:22:28.547Z,101865.59
2018-06-19T08:27:23.565Z,101867.55
2018-06-19T08:32:18.445Z,101869.75
2018-06-19T08:37:13.768Z,101874.27
2018-06-19T08:42:08.320Z,101873.77
2018-06-19T08:47:02.639Z,101880.99
2018-06-19T08:51:58.047Z,101878.44
2018-06-19T08:56:52.828Z,101890.10
2018-06-19T09:01:47.725Z,101897.63
2018-06-19T09:06:43.192Z,101893.31
2018-06-19T09:11:37.976Z,101897.36
2018-06-19T09:16:32.450Z,101896.59
2018-06-19T09:21:27.281Z,101899.42
2018-06-19T09:26:21.809Z,101900.69
2018-06-19T09:31:16.793Z,101906.93
2018-06-19T09:36:11.532Z,101901.16
2018-06-19T09:41:06.370Z,101906.03
2018-06-19T09:46:01.449Z,101905.38
2018-06-19T09:50:55.922Z,101902.35
2018-06-19T09:55:50.753Z,101908.22
2018-06-19T10:00:45.647Z,101910.98
2018-06-19T10:05:40.421Z,101907.65
2018-06-19T10:10:35.116Z,101910.08
2018-06-19T10:15:29.644Z,101907.80
2018-06-19T10:20:24.262Z,101916.07
2018-06-19T10:25:19.131Z,101919.83
2018-06-19T10:30:13.842Z,101920.78
2018-06-19T10:35:08.813Z,101928.03
2018-06-19T10:40:03.327Z,101925.74
2018-06-19T10:44:57.733Z,101922.48
2018-06-19T10:49:52.240Z,101926.67
2018-06-19T10:54:46.710Z,101925.81
2018-06-19T10:59:41.167Z,101924.60
2018-06-19T11:04:35.730Z,101931.15
2018-06-19T11:09:31.042Z,101926.91
2018-06-19T11:14:25.670Z,101929.66
2018-06-19T11:19:20.406Z,101930.30
2018-06-19T11:24:15.314Z,101933.50
2018-06-19T11:29:09.667Z,101928.13
2018-06-19T11:34:04.445Z,101930.02
2018-06-19T11:38:59.102Z,101931.67
2018-06-19T11:43:53.702Z,101924.98
2018-06-19T11:48:48.331Z,101923.66
2018-06-19T11:53:43.156Z,101925.88
2018-06-19T11:58:37.467Z,101924.03
2018-06-19T12:03:31.952Z,101926.85
2018-06-19T12:08:26.849Z,101926.99
2018-06-19T12:13:21.984Z,101911.84
2018-06-19T12:18:17.004Z,101911.84
2018-06-19T12:23:11.556Z,101913.83
2018-06-19T12:28:06.082Z,101915.09
2018-06-19T12:33:00.854Z,101909.17
2018-06-19T12:37:55.140Z,101906.22
2018-06-19T12:42:50.308Z,101912.28
2018-06-19T12:47:45.145Z,101917.27
2018-06-19T12:52:56.650Z,101919.21
2018-06-19T12:57:51.971Z,101914.50
2018-06-19T13:03:04.074Z,101928.19
2018-06-19T13:07:58.927Z,101930.95
2018-06-19T13:13:31.280Z,101930.50
2018-06-19T13:18:44.223Z,101927.58
2018-06-19T13:23:39.181Z,101922.47
2018-06-19T13:29:44.665Z,101925.95
2018-06-19T13:34:39.378Z,101917.44
2018-06-19T13:39:35.006Z,101922.70
2018-06-19T13:44:46.451Z,101931.11
2018-06-19T13:49:42.109Z,101930.50
2018-06-19T13:54:36.862Z,101921.44
2018-06-19T13:59:31.450Z,101926.75
2018-06-19T14:04:26.302Z,101925.41
2018-06-19T14:10:35.499Z,101918.94
2018-06-19T14:15:34.292Z,101923.92
2018-06-19T14:20:28.903Z,101919.59
2018-06-19T14:25:23.958Z,101915.23
2018-06-19T14:30:18.583Z,101901.45
2018-06-19T14:35:13.585Z,101905.76
2018-06-19T14:40:08.031Z,101906.52
2018-06-19T14:45:02.868Z,101912.59
2018-06-19T14:49:57.629Z,101907.80
2018-06-19T14:54:52.065Z,101904.78
2018-06-19T14:59:46.676Z,101904.75
2018-06-19T15:04:41.248Z,101908.39
2018-06-19T15:09:35.440Z,101904.02
2018-06-19T15:14:30.020Z,101903.52
2018-06-19T15:19:25.004Z,101904.09
2018-06-19T15:24:19.886Z,101896.05
2018-06-19T15:29:14.530Z,101893.59
2018-06-19T15:34:09.430Z,101900.28
2018-06-19T15:39:05.365Z,101906.97
2018-06-19T15:43:59.825Z,101897.48
2018-06-19T15:48:54.520Z,101889.92
2018-06-19T15:53:49.665Z,101895.55
2018-06-19T15:58:44.039Z,101889.38
2018-06-19T16:03:38.565Z,101881.17
2018-06-19T16:08:33.203Z,101890.39
2018-06-19T16:13:27.742Z,101886.53
2018-06-19T16:18:22.663Z,101879.91
2018-06-19T16:23:17.147Z,101874.69
2018-06-19T16:28:11.829Z,101870.28
2018-06-19T16:33:06.644Z,101875.88
2018-06-19T16:38:00.986Z,101872.14
2018-06-19T16:42:56.080Z,101874.31
2018-06-19T16:47:51.150Z,101872.91
2018-06-19T16:52:46.118Z,101873.34
2018-06-19T16:57:41.064Z,101865.61
2018-06-19T17:02:36.924Z,101865.38
2018-06-19T17:07:31.909Z,101866.30
2018-06-19T17:12:27.669Z,101866.14
2018-06-19T17:17:23.393Z,101860.95
2018-06-19T17:22:18.037Z,101870.62
2018-06-19T17:27:12.954Z,101866.54
2018-06-19T17:32:07.455Z,101863.16
2018-06-19T17:37:02.296Z,101866.09
2018-06-19T17:41:57.682Z,101854.94
2018-06-19T17:46:52.985Z,101855.08
2018-06-19T17:51:48.298Z,101852.94
2018-06-19T17:56:44.452Z,101851.94
2018-06-19T18:01:40.686Z,101852.84
2018-06-19T18:06:36.787Z,101854.23
2018-06-19T18:11:31.799Z,101846.60
2018-06-19T18:16:26.408Z,101848.99
2018-06-19T18:21:20.993Z,101849.16
2018-06-19T18:26:15.809Z,101845.84
2018-06-19T18:31:10.745Z,101854.31
2018-06-19T18:36:05.421Z,101850.08
2018-06-19T18:41:00.379Z,101848.16
2018-06-19T18:45:55.005Z,101850.14
2018-06-19T18:50:49.495Z,101850.14
2018-06-19T18:55:43.818Z,101850.91
2018-06-19T19:00:38.180Z,101847.51
2018-06-19T19:05:32.853Z,101850.48
2018-06-19T19:10:32.597Z,101851.05
2018-06-19T19:15:32.371Z,101856.56
2018-06-19T19:20:37.205Z,101848.61
2018-06-19T19:30:56.932Z,101851.23
2018-06-19T19:35:52.397Z,101841.75
2018-06-19T19:40:46.932Z,101849.80
2018-06-19T19:45:42.019Z,101850.48
2018-06-19T19:50:36.743Z,101859.21
2018-06-19T19:55:31.275Z,101858.67
2018-06-19T20:00:27.436Z,101858.83
2018-06-19T20:05:22.011Z,101859.38
2018-06-19T20:10:17.488Z,101868.11
2018-06-19T20:15:12.518Z,101874.30
2018-06-19T20:20:09.887Z,101878.83
2018-06-19T20:25:05.107Z,101879.88
2018-06-19T20:30:00.405Z,101880.87
2018-06-19T20:34:55.312Z,101887.01
2018-06-19T20:39:50.429Z,101895.00
2018-06-19T20:44:45.330Z,101894.74
2018-06-19T20:49:40.390Z,101894.62
2018-06-19T20:54:35.476Z,101902.44
2018-06-19T20:59:30.825Z,101900.39
2018-06-19T21:04:25.995Z,101896.73
2018-06-19T21:09:20.496Z,101896.00
2018-06-19T21:14:15.378Z,101892.58
2018-06-19T21:19:09.828Z,101893.19
2018-06-19T21:24:04.464Z,101891.97
2018-06-19T21:28:59.279Z,101888.92
2018-06-19T21:33:53.813Z,101881.84
2018-06-19T21:38:48.590Z,101888.56
2018-06-19T21:43:43.464Z,101889.91
2018-06-19T21:48:38.351Z,101889.53
2018-06-19T21:53:33.072Z,101890.52
2018-06-19T21:58:27.967Z,101882.09
2018-06-19T22:03:23.566Z,101884.40
2018-06-19T22:08:19.266Z,101887.22
2018-06-19T22:13:14.169Z,101877.45
2018-06-19T22:18:09.074Z,101877.22
2018-06-19T22:23:04.086Z,101877.70
2018-06-19T22:27:58.828Z,101872.19
2018-06-19T22:32:54.124Z,101878.34
2018-06-19T22:37:48.378Z,101878.95
2018-06-19T22:42:43.311Z,101873.21
2018-06-19T22:47:37.555Z,101879.08
2018-06-19T22:52:32.383Z,101881.89
2018-06-19T22:57:27.032Z,101876.64
2018-06-19T23:02:21.798Z,101880.41
2018-06-19T23:07:16.306Z,101872.98
2018-06-19T23:12:10.776Z,101871.03
2018-06-19T23:17:05.357Z,101875.67
2018-06-19T23:22:00.210Z,101877.27
2018-06-19T23:26:54.717Z,101881.08
2018-06-19T23:31:49.352Z,101869.22
2018-06-19T23:36:43.993Z,101869.83
2018-06-19T23:41:39.470Z,101870.08
2018-06-19T23:46:33.941Z,101866.30
2018-06-19T23:51:28.627Z,101861.91
2018-06-19T23:56:23.132Z,101857.13
